sensor_id;sensor_type;location;lat;lon;timestamp;P1;durP1;ratioP1;P2;durP2;ratioP2
64885;SDS011;51514;52.206;5.114;2023-08-07T00:00:22;2.97;;;1.30;;
64885;SDS011;51514;52.206;5.114;2023-08-07T00:02:47;2.92;;;1.27;;
64885;SDS011;51514;52.206;5.114;2023-08-07T00:05:13;2.85;;;1.27;;
64885;SDS011;51514;52.206;5.114;2023-08-07T00:07:39;2.83;;;1.15;;
64885;SDS011;51514;52.206;5.114;2023-08-07T00:10:05;3.03;;;1.33;;
64885;SDS011;51514;52.206;5.114;2023-08-07T00:12:30;2.88;;;1.38;;
64885;SDS011;51514;52.206;5.114;2023-08-07T00:14:56;3.45;;;1.58;;
64885;SDS011;51514;52.206;5.114;2023-08-07T00:17:21;2.70;;;1.23;;
64885;SDS011;51514;52.206;5.114;2023-08-07T00:19:47;3.03;;;1.40;;
64885;SDS011;51514;52.206;5.114;2023-08-07T00:22:12;1.95;;;1.25;;
64885;SDS011;51514;52.206;5.114;2023-08-07T00:24:37;2.72;;;1.42;;
64885;SDS011;51514;52.206;5.114;2023-08-07T00:27:03;2.75;;;1.30;;
64885;SDS011;51514;52.206;5.114;2023-08-07T00:29:28;3.42;;;1.52;;
64885;SDS011;51514;52.206;5.114;2023-08-07T00:31:54;2.55;;;1.25;;
64885;SDS011;51514;52.206;5.114;2023-08-07T00:34:19;2.00;;;1.10;;
64885;SDS011;51514;52.206;5.114;2023-08-07T00:36:44;4.20;;;1.80;;
64885;SDS011;51514;52.206;5.114;2023-08-07T00:39:10;3.83;;;1.60;;
64885;SDS011;51514;52.206;5.114;2023-08-07T00:41:35;2.90;;;1.17;;
64885;SDS011;51514;52.206;5.114;2023-08-07T00:44:01;2.63;;;1.45;;
64885;SDS011;51514;52.206;5.114;2023-08-07T00:46:26;2.92;;;1.25;;
64885;SDS011;51514;52.206;5.114;2023-08-07T00:48:54;4.28;;;1.35;;
64885;SDS011;51514;52.206;5.114;2023-08-07T00:51:20;2.30;;;1.42;;
64885;SDS011;51514;52.206;5.114;2023-08-07T00:53:46;3.60;;;1.60;;
64885;SDS011;51514;52.206;5.114;2023-08-07T00:56:13;2.55;;;1.52;;
64885;SDS011;51514;52.206;5.114;2023-08-07T00:58:39;2.25;;;1.25;;
64885;SDS011;51514;52.206;5.114;2023-08-07T01:01:04;2.33;;;1.30;;
64885;SDS011;51514;52.206;5.114;2023-08-07T01:03:30;2.00;;;1.40;;
64885;SDS011;51514;52.206;5.114;2023-08-07T01:05:56;2.65;;;1.27;;
64885;SDS011;51514;52.206;5.114;2023-08-07T01:08:21;2.38;;;1.25;;
64885;SDS011;51514;52.206;5.114;2023-08-07T01:13:29;2.38;;;1.30;;
64885;SDS011;51514;52.206;5.114;2023-08-07T01:16:00;4.47;;;1.77;;
64885;SDS011;51514;52.206;5.114;2023-08-07T01:18:32;2.95;;;1.55;;
64885;SDS011;51514;52.206;5.114;2023-08-07T01:20:59;4.22;;;1.58;;
64885;SDS011;51514;52.206;5.114;2023-08-07T01:23:24;3.85;;;1.40;;
64885;SDS011;51514;52.206;5.114;2023-08-07T01:25:50;4.30;;;1.63;;
64885;SDS011;51514;52.206;5.114;2023-08-07T01:28:24;2.47;;;1.33;;
64885;SDS011;51514;52.206;5.114;2023-08-07T01:30:54;3.20;;;1.20;;
64885;SDS011;51514;52.206;5.114;2023-08-07T01:33:24;2.55;;;1.50;;
64885;SDS011;51514;52.206;5.114;2023-08-07T01:35:57;2.95;;;1.38;;
64885;SDS011;51514;52.206;5.114;2023-08-07T01:40:52;2.88;;;1.40;;
64885;SDS011;51514;52.206;5.114;2023-08-07T01:43:18;2.35;;;1.52;;
64885;SDS011;51514;52.206;5.114;2023-08-07T01:45:44;2.28;;;1.40;;
64885;SDS011;51514;52.206;5.114;2023-08-07T01:48:10;4.03;;;1.67;;
64885;SDS011;51514;52.206;5.114;2023-08-07T01:50:38;2.65;;;1.48;;
64885;SDS011;51514;52.206;5.114;2023-08-07T01:53:04;1.98;;;1.27;;
64885;SDS011;51514;52.206;5.114;2023-08-07T01:55:30;2.95;;;1.38;;
64885;SDS011;51514;52.206;5.114;2023-08-07T01:57:56;2.50;;;1.58;;
64885;SDS011;51514;52.206;5.114;2023-08-07T02:00:21;3.88;;;1.83;;
64885;SDS011;51514;52.206;5.114;2023-08-07T02:02:47;3.08;;;2.05;;
64885;SDS011;51514;52.206;5.114;2023-08-07T02:05:13;2.78;;;1.30;;
64885;SDS011;51514;52.206;5.114;2023-08-07T02:07:39;2.75;;;1.60;;
64885;SDS011;51514;52.206;5.114;2023-08-07T02:10:05;2.83;;;1.50;;
64885;SDS011;51514;52.206;5.114;2023-08-07T02:12:30;3.70;;;1.30;;
64885;SDS011;51514;52.206;5.114;2023-08-07T02:14:58;3.60;;;1.70;;
64885;SDS011;51514;52.206;5.114;2023-08-07T02:17:25;2.95;;;1.38;;
64885;SDS011;51514;52.206;5.114;2023-08-07T02:19:51;2.33;;;1.20;;
64885;SDS011;51514;52.206;5.114;2023-08-07T02:22:16;3.13;;;1.27;;
64885;SDS011;51514;52.206;5.114;2023-08-07T02:24:41;3.42;;;1.33;;
64885;SDS011;51514;52.206;5.114;2023-08-07T02:27:07;3.83;;;1.70;;
64885;SDS011;51514;52.206;5.114;2023-08-07T02:29:32;2.25;;;1.17;;
64885;SDS011;51514;52.206;5.114;2023-08-07T02:31:59;2.25;;;1.10;;
64885;SDS011;51514;52.206;5.114;2023-08-07T02:34:27;2.92;;;1.80;;
64885;SDS011;51514;52.206;5.114;2023-08-07T02:36:53;2.35;;;1.17;;
64885;SDS011;51514;52.206;5.114;2023-08-07T02:39:18;3.30;;;1.45;;
64885;SDS011;51514;52.206;5.114;2023-08-07T02:41:44;3.53;;;1.50;;
64885;SDS011;51514;52.206;5.114;2023-08-07T02:44:09;2.70;;;1.58;;
64885;SDS011;51514;52.206;5.114;2023-08-07T02:46:34;1.55;;;1.20;;
64885;SDS011;51514;52.206;5.114;2023-08-07T02:49:01;2.92;;;1.23;;
64885;SDS011;51514;52.206;5.114;2023-08-07T02:51:26;2.67;;;1.40;;
64885;SDS011;51514;52.206;5.114;2023-08-07T02:53:52;3.67;;;1.60;;
64885;SDS011;51514;52.206;5.114;2023-08-07T02:56:17;3.33;;;1.65;;
64885;SDS011;51514;52.206;5.114;2023-08-07T02:58:43;3.63;;;1.63;;
64885;SDS011;51514;52.206;5.114;2023-08-07T03:01:08;3.42;;;1.60;;
64885;SDS011;51514;52.206;5.114;2023-08-07T03:03:33;3.63;;;1.60;;
64885;SDS011;51514;52.206;5.114;2023-08-07T03:05:59;3.50;;;1.50;;
64885;SDS011;51514;52.206;5.114;2023-08-07T03:08:24;3.10;;;1.17;;
64885;SDS011;51514;52.206;5.114;2023-08-07T03:10:53;2.38;;;1.10;;
64885;SDS011;51514;52.206;5.114;2023-08-07T03:13:20;2.95;;;1.27;;
64885;SDS011;51514;52.206;5.114;2023-08-07T03:15:46;3.35;;;1.60;;
64885;SDS011;51514;52.206;5.114;2023-08-07T03:18:14;2.90;;;1.65;;
64885;SDS011;51514;52.206;5.114;2023-08-07T03:20:39;5.95;;;1.40;;
64885;SDS011;51514;52.206;5.114;2023-08-07T03:23:04;3.13;;;1.83;;
64885;SDS011;51514;52.206;5.114;2023-08-07T03:25:30;2.92;;;1.65;;
64885;SDS011;51514;52.206;5.114;2023-08-07T03:27:55;3.92;;;1.27;;
64885;SDS011;51514;52.206;5.114;2023-08-07T03:30:20;4.13;;;1.50;;
64885;SDS011;51514;52.206;5.114;2023-08-07T03:32:46;3.83;;;1.50;;
64885;SDS011;51514;52.206;5.114;2023-08-07T03:35:11;3.40;;;1.30;;
64885;SDS011;51514;52.206;5.114;2023-08-07T03:37:36;2.85;;;1.65;;
64885;SDS011;51514;52.206;5.114;2023-08-07T03:40:02;4.50;;;1.90;;
64885;SDS011;51514;52.206;5.114;2023-08-07T03:42:28;3.38;;;1.35;;
64885;SDS011;51514;52.206;5.114;2023-08-07T03:44:53;2.63;;;1.40;;
64885;SDS011;51514;52.206;5.114;2023-08-07T03:47:18;3.90;;;1.65;;
64885;SDS011;51514;52.206;5.114;2023-08-07T03:49:44;2.60;;;1.55;;
64885;SDS011;51514;52.206;5.114;2023-08-07T03:52:09;2.90;;;1.65;;
64885;SDS011;51514;52.206;5.114;2023-08-07T03:54:35;2.25;;;1.10;;
64885;SDS011;51514;52.206;5.114;2023-08-07T03:57:00;2.65;;;1.38;;
64885;SDS011;51514;52.206;5.114;2023-08-07T03:59:25;2.47;;;1.20;;
64885;SDS011;51514;52.206;5.114;2023-08-07T04:01:51;2.50;;;1.30;;
64885;SDS011;51514;52.206;5.114;2023-08-07T04:04:16;2.90;;;2.00;;
64885;SDS011;51514;52.206;5.114;2023-08-07T04:06:42;1.77;;;1.08;;
64885;SDS011;51514;52.206;5.114;2023-08-07T04:09:08;2.13;;;1.13;;
64885;SDS011;51514;52.206;5.114;2023-08-07T04:11:35;1.90;;;1.27;;
64885;SDS011;51514;52.206;5.114;2023-08-07T04:14:00;2.92;;;1.73;;
64885;SDS011;51514;52.206;5.114;2023-08-07T04:16:26;3.67;;;1.55;;
64885;SDS011;51514;52.206;5.114;2023-08-07T04:18:51;2.72;;;1.50;;
64885;SDS011;51514;52.206;5.114;2023-08-07T04:21:17;3.33;;;1.80;;
64885;SDS011;51514;52.206;5.114;2023-08-07T04:23:42;2.00;;;1.05;;
64885;SDS011;51514;52.206;5.114;2023-08-07T04:26:07;4.28;;;1.65;;
64885;SDS011;51514;52.206;5.114;2023-08-07T04:28:33;3.33;;;1.17;;
64885;SDS011;51514;52.206;5.114;2023-08-07T04:30:58;2.42;;;1.35;;
64885;SDS011;51514;52.206;5.114;2023-08-07T04:33:23;5.43;;;1.77;;
64885;SDS011;51514;52.206;5.114;2023-08-07T04:35:49;2.40;;;1.65;;
64885;SDS011;51514;52.206;5.114;2023-08-07T04:38:14;2.03;;;1.35;;
64885;SDS011;51514;52.206;5.114;2023-08-07T04:40:47;3.80;;;1.70;;
64885;SDS011;51514;52.206;5.114;2023-08-07T04:43:15;2.05;;;1.20;;
64885;SDS011;51514;52.206;5.114;2023-08-07T04:45:42;2.58;;;1.30;;
64885;SDS011;51514;52.206;5.114;2023-08-07T04:48:09;3.47;;;1.27;;
64885;SDS011;51514;52.206;5.114;2023-08-07T04:50:36;4.00;;;1.70;;
64885;SDS011;51514;52.206;5.114;2023-08-07T04:53:02;1.67;;;1.10;;
64885;SDS011;51514;52.206;5.114;2023-08-07T04:55:27;2.35;;;1.27;;
64885;SDS011;51514;52.206;5.114;2023-08-07T04:57:52;3.25;;;1.40;;
64885;SDS011;51514;52.206;5.114;2023-08-07T05:00:19;2.22;;;1.33;;
64885;SDS011;51514;52.206;5.114;2023-08-07T05:02:46;2.60;;;1.35;;
64885;SDS011;51514;52.206;5.114;2023-08-07T05:05:13;3.33;;;1.55;;
64885;SDS011;51514;52.206;5.114;2023-08-07T05:07:39;3.30;;;1.52;;
64885;SDS011;51514;52.206;5.114;2023-08-07T05:10:06;3.80;;;1.67;;
64885;SDS011;51514;52.206;5.114;2023-08-07T05:12:31;3.47;;;1.50;;
64885;SDS011;51514;52.206;5.114;2023-08-07T05:14:57;2.00;;;1.17;;
64885;SDS011;51514;52.206;5.114;2023-08-07T05:17:22;3.13;;;1.40;;
64885;SDS011;51514;52.206;5.114;2023-08-07T05:19:47;3.72;;;1.67;;
64885;SDS011;51514;52.206;5.114;2023-08-07T05:22:13;2.53;;;1.30;;
64885;SDS011;51514;52.206;5.114;2023-08-07T05:24:38;2.92;;;1.40;;
64885;SDS011;51514;52.206;5.114;2023-08-07T05:27:08;2.60;;;1.48;;
64885;SDS011;51514;52.206;5.114;2023-08-07T05:29:34;3.15;;;1.52;;
64885;SDS011;51514;52.206;5.114;2023-08-07T05:32:08;2.78;;;1.50;;
64885;SDS011;51514;52.206;5.114;2023-08-07T05:34:33;2.38;;;1.35;;
64885;SDS011;51514;52.206;5.114;2023-08-07T05:36:58;3.20;;;1.40;;
64885;SDS011;51514;52.206;5.114;2023-08-07T05:39:24;2.92;;;1.40;;
64885;SDS011;51514;52.206;5.114;2023-08-07T05:41:49;2.40;;;1.52;;
64885;SDS011;51514;52.206;5.114;2023-08-07T05:44:14;1.85;;;1.05;;
64885;SDS011;51514;52.206;5.114;2023-08-07T05:46:40;4.30;;;1.50;;
64885;SDS011;51514;52.206;5.114;2023-08-07T05:49:05;4.00;;;1.48;;
64885;SDS011;51514;52.206;5.114;2023-08-07T05:51:30;3.58;;;1.40;;
64885;SDS011;51514;52.206;5.114;2023-08-07T05:53:56;3.78;;;1.42;;
64885;SDS011;51514;52.206;5.114;2023-08-07T05:56:21;2.63;;;1.50;;
64885;SDS011;51514;52.206;5.114;2023-08-07T05:58:46;1.92;;;1.13;;
64885;SDS011;51514;52.206;5.114;2023-08-07T06:01:12;2.72;;;1.50;;
64885;SDS011;51514;52.206;5.114;2023-08-07T06:03:37;2.88;;;1.48;;
64885;SDS011;51514;52.206;5.114;2023-08-07T06:06:03;2.30;;;1.50;;
64885;SDS011;51514;52.206;5.114;2023-08-07T06:08:28;2.47;;;1.45;;
64885;SDS011;51514;52.206;5.114;2023-08-07T06:10:54;2.78;;;1.55;;
64885;SDS011;51514;52.206;5.114;2023-08-07T06:13:19;2.45;;;1.55;;
64885;SDS011;51514;52.206;5.114;2023-08-07T06:15:44;3.88;;;1.42;;
64885;SDS011;51514;52.206;5.114;2023-08-07T06:18:10;2.47;;;1.55;;
64885;SDS011;51514;52.206;5.114;2023-08-07T06:20:35;1.67;;;0.90;;
64885;SDS011;51514;52.206;5.114;2023-08-07T06:23:00;2.90;;;1.40;;
64885;SDS011;51514;52.206;5.114;2023-08-07T06:25:26;3.28;;;1.50;;
64885;SDS011;51514;52.206;5.114;2023-08-07T06:27:52;2.72;;;1.40;;
64885;SDS011;51514;52.206;5.114;2023-08-07T06:30:17;2.25;;;1.25;;
64885;SDS011;51514;52.206;5.114;2023-08-07T06:32:43;6.30;;;2.03;;
64885;SDS011;51514;52.206;5.114;2023-08-07T06:35:08;13.43;;;2.75;;
64885;SDS011;51514;52.206;5.114;2023-08-07T06:37:34;14.35;;;3.05;;
64885;SDS011;51514;52.206;5.114;2023-08-07T06:39:59;6.43;;;1.92;;
64885;SDS011;51514;52.206;5.114;2023-08-07T06:42:25;9.88;;;2.00;;
64885;SDS011;51514;52.206;5.114;2023-08-07T06:44:50;6.75;;;1.98;;
64885;SDS011;51514;52.206;5.114;2023-08-07T06:47:15;5.70;;;1.90;;
64885;SDS011;51514;52.206;5.114;2023-08-07T06:49:41;11.35;;;2.22;;
64885;SDS011;51514;52.206;5.114;2023-08-07T06:52:06;6.00;;;1.83;;
64885;SDS011;51514;52.206;5.114;2023-08-07T06:54:32;8.40;;;1.88;;
64885;SDS011;51514;52.206;5.114;2023-08-07T06:56:57;8.15;;;2.85;;
64885;SDS011;51514;52.206;5.114;2023-08-07T06:59:22;5.60;;;2.10;;
64885;SDS011;51514;52.206;5.114;2023-08-07T07:01:48;7.18;;;2.15;;
64885;SDS011;51514;52.206;5.114;2023-08-07T07:04:14;3.47;;;1.83;;
64885;SDS011;51514;52.206;5.114;2023-08-07T07:06:39;6.88;;;2.35;;
64885;SDS011;51514;52.206;5.114;2023-08-07T07:09:05;3.95;;;2.28;;
64885;SDS011;51514;52.206;5.114;2023-08-07T07:11:30;6.90;;;1.83;;
64885;SDS011;51514;52.206;5.114;2023-08-07T07:13:56;5.22;;;2.10;;
64885;SDS011;51514;52.206;5.114;2023-08-07T07:16:21;4.85;;;1.83;;
64885;SDS011;51514;52.206;5.114;2023-08-07T07:18:50;3.83;;;1.83;;
64885;SDS011;51514;52.206;5.114;2023-08-07T07:23:41;6.40;;;2.05;;
64885;SDS011;51514;52.206;5.114;2023-08-07T07:26:06;4.88;;;1.80;;
64885;SDS011;51514;52.206;5.114;2023-08-07T07:28:32;3.67;;;1.80;;
64885;SDS011;51514;52.206;5.114;2023-08-07T07:30:57;3.70;;;1.67;;
64885;SDS011;51514;52.206;5.114;2023-08-07T07:33:23;4.78;;;1.85;;
64885;SDS011;51514;52.206;5.114;2023-08-07T07:35:48;8.23;;;3.00;;
64885;SDS011;51514;52.206;5.114;2023-08-07T07:38:14;5.13;;;2.10;;
64885;SDS011;51514;52.206;5.114;2023-08-07T07:40:40;5.47;;;1.75;;
64885;SDS011;51514;52.206;5.114;2023-08-07T07:43:06;6.82;;;2.25;;
64885;SDS011;51514;52.206;5.114;2023-08-07T07:45:31;5.32;;;2.60;;
64885;SDS011;51514;52.206;5.114;2023-08-07T07:47:58;4.82;;;1.90;;
64885;SDS011;51514;52.206;5.114;2023-08-07T07:50:24;4.35;;;2.40;;
64885;SDS011;51514;52.206;5.114;2023-08-07T07:52:49;3.65;;;1.70;;
64885;SDS011;51514;52.206;5.114;2023-08-07T07:55:15;4.95;;;2.00;;
64885;SDS011;51514;52.206;5.114;2023-08-07T07:57:40;3.70;;;2.03;;
64885;SDS011;51514;52.206;5.114;2023-08-07T08:00:06;7.32;;;2.42;;
64885;SDS011;51514;52.206;5.114;2023-08-07T08:02:35;5.60;;;2.20;;
64885;SDS011;51514;52.206;5.114;2023-08-07T08:05:08;4.30;;;1.95;;
64885;SDS011;51514;52.206;5.114;2023-08-07T08:07:35;5.63;;;2.25;;
64885;SDS011;51514;52.206;5.114;2023-08-07T08:10:00;5.25;;;2.20;;
64885;SDS011;51514;52.206;5.114;2023-08-07T08:12:26;4.82;;;2.00;;
64885;SDS011;51514;52.206;5.114;2023-08-07T08:14:51;4.50;;;1.90;;
64885;SDS011;51514;52.206;5.114;2023-08-07T08:17:17;4.22;;;1.95;;
64885;SDS011;51514;52.206;5.114;2023-08-07T08:19:42;5.00;;;1.90;;
64885;SDS011;51514;52.206;5.114;2023-08-07T08:22:07;4.65;;;1.88;;
64885;SDS011;51514;52.206;5.114;2023-08-07T08:24:33;4.20;;;1.65;;
64885;SDS011;51514;52.206;5.114;2023-08-07T08:26:58;4.45;;;1.90;;
64885;SDS011;51514;52.206;5.114;2023-08-07T08:29:24;3.63;;;1.70;;
64885;SDS011;51514;52.206;5.114;2023-08-07T08:31:49;4.38;;;1.60;;
64885;SDS011;51514;52.206;5.114;2023-08-07T08:34:16;3.33;;;1.80;;
64885;SDS011;51514;52.206;5.114;2023-08-07T08:36:41;4.43;;;2.25;;
64885;SDS011;51514;52.206;5.114;2023-08-07T08:39:07;3.35;;;1.65;;
64885;SDS011;51514;52.206;5.114;2023-08-07T08:41:32;3.65;;;1.90;;
64885;SDS011;51514;52.206;5.114;2023-08-07T08:43:58;3.47;;;1.73;;
64885;SDS011;51514;52.206;5.114;2023-08-07T08:46:27;7.05;;;2.42;;
64885;SDS011;51514;52.206;5.114;2023-08-07T08:48:56;4.15;;;1.85;;
64885;SDS011;51514;52.206;5.114;2023-08-07T08:51:24;3.92;;;2.05;;
64885;SDS011;51514;52.206;5.114;2023-08-07T08:53:51;3.40;;;2.00;;
64885;SDS011;51514;52.206;5.114;2023-08-07T08:56:18;4.47;;;1.67;;
64885;SDS011;51514;52.206;5.114;2023-08-07T08:58:47;5.25;;;2.13;;
64885;SDS011;51514;52.206;5.114;2023-08-07T09:01:13;4.72;;;1.95;;
64885;SDS011;51514;52.206;5.114;2023-08-07T09:03:39;5.78;;;1.95;;
64885;SDS011;51514;52.206;5.114;2023-08-07T09:06:04;5.60;;;1.75;;
64885;SDS011;51514;52.206;5.114;2023-08-07T09:08:31;3.45;;;1.98;;
64885;SDS011;51514;52.206;5.114;2023-08-07T09:10:59;3.35;;;1.75;;
64885;SDS011;51514;52.206;5.114;2023-08-07T09:13:25;4.25;;;1.92;;
64885;SDS011;51514;52.206;5.114;2023-08-07T09:15:53;8.60;;;1.88;;
64885;SDS011;51514;52.206;5.114;2023-08-07T09:18:18;4.95;;;1.63;;
64885;SDS011;51514;52.206;5.114;2023-08-07T09:20:45;2.72;;;1.70;;
64885;SDS011;51514;52.206;5.114;2023-08-07T09:23:11;4.45;;;1.70;;
64885;SDS011;51514;52.206;5.114;2023-08-07T09:25:36;5.07;;;1.60;;
64885;SDS011;51514;52.206;5.114;2023-08-07T09:28:05;2.78;;;1.52;;
64885;SDS011;51514;52.206;5.114;2023-08-07T09:30:31;3.35;;;1.60;;
64885;SDS011;51514;52.206;5.114;2023-08-07T09:32:59;4.15;;;1.80;;
64885;SDS011;51514;52.206;5.114;2023-08-07T09:35:25;4.65;;;1.75;;
64885;SDS011;51514;52.206;5.114;2023-08-07T09:37:51;3.65;;;1.55;;
64885;SDS011;51514;52.206;5.114;2023-08-07T09:40:17;3.13;;;1.30;;
64885;SDS011;51514;52.206;5.114;2023-08-07T09:42:43;5.93;;;1.90;;
64885;SDS011;51514;52.206;5.114;2023-08-07T09:45:18;5.72;;;1.75;;
64885;SDS011;51514;52.206;5.114;2023-08-07T09:47:44;3.53;;;1.55;;
64885;SDS011;51514;52.206;5.114;2023-08-07T09:50:14;5.15;;;2.38;;
64885;SDS011;51514;52.206;5.114;2023-08-07T09:52:42;3.90;;;1.73;;
64885;SDS011;51514;52.206;5.114;2023-08-07T09:55:12;5.28;;;1.90;;
64885;SDS011;51514;52.206;5.114;2023-08-07T09:57:38;3.30;;;1.30;;
64885;SDS011;51514;52.206;5.114;2023-08-07T10:00:04;4.70;;;2.47;;
64885;SDS011;51514;52.206;5.114;2023-08-07T10:02:36;4.72;;;1.75;;
64885;SDS011;51514;52.206;5.114;2023-08-07T10:05:02;3.22;;;1.40;;
64885;SDS011;51514;52.206;5.114;2023-08-07T10:07:30;2.60;;;1.70;;
64885;SDS011;51514;52.206;5.114;2023-08-07T10:09:55;4.97;;;1.80;;
64885;SDS011;51514;52.206;5.114;2023-08-07T10:12:23;4.13;;;1.40;;
64885;SDS011;51514;52.206;5.114;2023-08-07T10:14:48;7.07;;;1.55;;
64885;SDS011;51514;52.206;5.114;2023-08-07T10:17:13;3.22;;;1.52;;
64885;SDS011;51514;52.206;5.114;2023-08-07T10:19:39;3.13;;;1.45;;
64885;SDS011;51514;52.206;5.114;2023-08-07T10:22:05;4.60;;;1.52;;
64885;SDS011;51514;52.206;5.114;2023-08-07T10:24:31;2.53;;;1.40;;
64885;SDS011;51514;52.206;5.114;2023-08-07T10:26:57;2.92;;;1.38;;
64885;SDS011;51514;52.206;5.114;2023-08-07T10:29:23;4.25;;;1.80;;
64885;SDS011;51514;52.206;5.114;2023-08-07T10:31:50;3.22;;;1.50;;
64885;SDS011;51514;52.206;5.114;2023-08-07T10:34:18;2.78;;;1.63;;
64885;SDS011;51514;52.206;5.114;2023-08-07T10:36:43;4.25;;;1.65;;
64885;SDS011;51514;52.206;5.114;2023-08-07T10:39:09;4.22;;;1.63;;
64885;SDS011;51514;52.206;5.114;2023-08-07T10:41:40;2.65;;;1.45;;
64885;SDS011;51514;52.206;5.114;2023-08-07T10:44:22;5.57;;;2.38;;
64885;SDS011;51514;52.206;5.114;2023-08-07T10:46:51;6.28;;;2.20;;
64885;SDS011;51514;52.206;5.114;2023-08-07T10:49:31;3.95;;;2.25;;
64885;SDS011;51514;52.206;5.114;2023-08-07T10:51:57;4.00;;;2.38;;
64885;SDS011;51514;52.206;5.114;2023-08-07T10:54:23;5.22;;;1.73;;
64885;SDS011;51514;52.206;5.114;2023-08-07T10:56:53;6.57;;;2.58;;
64885;SDS011;51514;52.206;5.114;2023-08-07T10:59:20;9.60;;;2.55;;
64885;SDS011;51514;52.206;5.114;2023-08-07T11:01:50;5.20;;;2.47;;
64885;SDS011;51514;52.206;5.114;2023-08-07T11:04:17;4.47;;;1.73;;
64885;SDS011;51514;52.206;5.114;2023-08-07T11:06:46;7.25;;;2.25;;
64885;SDS011;51514;52.206;5.114;2023-08-07T11:09:13;6.68;;;2.40;;
64885;SDS011;51514;52.206;5.114;2023-08-07T11:11:39;5.05;;;2.03;;
64885;SDS011;51514;52.206;5.114;2023-08-07T11:14:14;4.45;;;1.90;;
64885;SDS011;51514;52.206;5.114;2023-08-07T11:16:41;5.35;;;2.10;;
64885;SDS011;51514;52.206;5.114;2023-08-07T11:19:07;5.57;;;2.53;;
64885;SDS011;51514;52.206;5.114;2023-08-07T11:21:33;3.08;;;1.88;;
64885;SDS011;51514;52.206;5.114;2023-08-07T11:24:00;3.92;;;2.00;;
64885;SDS011;51514;52.206;5.114;2023-08-07T11:26:26;4.07;;;2.05;;
64885;SDS011;51514;52.206;5.114;2023-08-07T11:28:53;4.53;;;2.20;;
64885;SDS011;51514;52.206;5.114;2023-08-07T11:31:19;6.07;;;2.60;;
64885;SDS011;51514;52.206;5.114;2023-08-07T11:33:44;5.95;;;2.40;;
64885;SDS011;51514;52.206;5.114;2023-08-07T11:36:10;7.15;;;2.40;;
64885;SDS011;51514;52.206;5.114;2023-08-07T11:38:38;5.05;;;2.10;;
64885;SDS011;51514;52.206;5.114;2023-08-07T11:41:16;4.28;;;2.13;;
64885;SDS011;51514;52.206;5.114;2023-08-07T11:43:43;4.40;;;2.22;;
64885;SDS011;51514;52.206;5.114;2023-08-07T11:46:10;7.00;;;2.22;;
64885;SDS011;51514;52.206;5.114;2023-08-07T11:48:37;5.93;;;2.30;;
64885;SDS011;51514;52.206;5.114;2023-08-07T11:51:04;6.07;;;2.38;;
64885;SDS011;51514;52.206;5.114;2023-08-07T11:53:34;3.67;;;1.85;;
64885;SDS011;51514;52.206;5.114;2023-08-07T11:56:02;5.93;;;2.20;;
64885;SDS011;51514;52.206;5.114;2023-08-07T11:58:35;6.22;;;2.42;;
64885;SDS011;51514;52.206;5.114;2023-08-07T12:01:12;7.13;;;2.50;;
64885;SDS011;51514;52.206;5.114;2023-08-07T12:03:42;5.03;;;2.30;;
64885;SDS011;51514;52.206;5.114;2023-08-07T12:06:15;3.42;;;1.83;;
64885;SDS011;51514;52.206;5.114;2023-08-07T12:08:40;5.60;;;2.22;;
64885;SDS011;51514;52.206;5.114;2023-08-07T12:11:10;3.35;;;2.10;;
64885;SDS011;51514;52.206;5.114;2023-08-07T12:13:43;4.70;;;2.10;;
64885;SDS011;51514;52.206;5.114;2023-08-07T12:16:10;3.65;;;2.00;;
64885;SDS011;51514;52.206;5.114;2023-08-07T12:18:42;5.07;;;2.22;;
64885;SDS011;51514;52.206;5.114;2023-08-07T12:21:13;4.28;;;2.17;;
64885;SDS011;51514;52.206;5.114;2023-08-07T12:23:39;4.30;;;2.10;;
64885;SDS011;51514;52.206;5.114;2023-08-07T12:26:05;4.82;;;2.05;;
64885;SDS011;51514;52.206;5.114;2023-08-07T12:28:32;5.65;;;2.35;;
64885;SDS011;51514;52.206;5.114;2023-08-07T12:30:58;3.72;;;2.08;;
64885;SDS011;51514;52.206;5.114;2023-08-07T12:33:23;4.65;;;2.55;;
64885;SDS011;51514;52.206;5.114;2023-08-07T12:35:48;4.38;;;2.53;;
64885;SDS011;51514;52.206;5.114;2023-08-07T12:38:14;3.92;;;2.10;;
64885;SDS011;51514;52.206;5.114;2023-08-07T12:40:40;4.82;;;2.15;;
64885;SDS011;51514;52.206;5.114;2023-08-07T12:43:06;4.35;;;2.33;;
64885;SDS011;51514;52.206;5.114;2023-08-07T12:45:32;4.93;;;1.90;;
64885;SDS011;51514;52.206;5.114;2023-08-07T12:47:58;4.63;;;2.20;;
64885;SDS011;51514;52.206;5.114;2023-08-07T12:50:24;5.03;;;2.15;;
64885;SDS011;51514;52.206;5.114;2023-08-07T12:52:50;5.60;;;2.20;;
64885;SDS011;51514;52.206;5.114;2023-08-07T12:55:15;4.13;;;1.98;;
64885;SDS011;51514;52.206;5.114;2023-08-07T12:57:41;5.30;;;2.15;;
64885;SDS011;51514;52.206;5.114;2023-08-07T13:00:08;4.28;;;2.10;;
64885;SDS011;51514;52.206;5.114;2023-08-07T13:02:37;3.78;;;1.65;;
64885;SDS011;51514;52.206;5.114;2023-08-07T13:05:03;3.78;;;2.10;;
64885;SDS011;51514;52.206;5.114;2023-08-07T13:07:28;4.22;;;1.85;;
64885;SDS011;51514;52.206;5.114;2023-08-07T13:09:53;2.67;;;1.95;;
64885;SDS011;51514;52.206;5.114;2023-08-07T13:12:20;4.35;;;2.08;;
64885;SDS011;51514;52.206;5.114;2023-08-07T13:14:45;5.00;;;2.00;;
64885;SDS011;51514;52.206;5.114;2023-08-07T13:17:11;3.75;;;2.00;;
64885;SDS011;51514;52.206;5.114;2023-08-07T13:19:36;4.72;;;2.15;;
64885;SDS011;51514;52.206;5.114;2023-08-07T13:22:02;4.25;;;2.13;;
64885;SDS011;51514;52.206;5.114;2023-08-07T13:24:27;4.20;;;2.22;;
64885;SDS011;51514;52.206;5.114;2023-08-07T13:26:52;1.73;;;1.45;;
64885;SDS011;51514;52.206;5.114;2023-08-07T13:29:18;3.50;;;1.90;;
64885;SDS011;51514;52.206;5.114;2023-08-07T13:31:43;4.68;;;2.17;;
64885;SDS011;51514;52.206;5.114;2023-08-07T13:34:11;3.33;;;1.70;;
64885;SDS011;51514;52.206;5.114;2023-08-07T13:36:37;2.95;;;1.88;;
64885;SDS011;51514;52.206;5.114;2023-08-07T13:39:06;4.32;;;1.90;;
64885;SDS011;51514;52.206;5.114;2023-08-07T13:41:33;2.22;;;1.45;;
64885;SDS011;51514;52.206;5.114;2023-08-07T13:43:59;5.07;;;2.20;;
64885;SDS011;51514;52.206;5.114;2023-08-07T13:46:25;3.50;;;2.20;;
64885;SDS011;51514;52.206;5.114;2023-08-07T13:48:51;2.83;;;1.80;;
64885;SDS011;51514;52.206;5.114;2023-08-07T13:51:16;4.80;;;2.00;;
64885;SDS011;51514;52.206;5.114;2023-08-07T13:53:45;3.92;;;2.10;;
64885;SDS011;51514;52.206;5.114;2023-08-07T13:56:11;5.10;;;1.88;;
64885;SDS011;51514;52.206;5.114;2023-08-07T13:58:38;2.97;;;1.90;;
64885;SDS011;51514;52.206;5.114;2023-08-07T14:01:03;3.90;;;2.20;;
64885;SDS011;51514;52.206;5.114;2023-08-07T14:03:29;2.72;;;1.77;;
64885;SDS011;51514;52.206;5.114;2023-08-07T14:05:55;4.30;;;1.90;;
64885;SDS011;51514;52.206;5.114;2023-08-07T14:08:20;3.78;;;2.03;;
64885;SDS011;51514;52.206;5.114;2023-08-07T14:10:45;4.03;;;1.88;;
64885;SDS011;51514;52.206;5.114;2023-08-07T14:13:11;3.97;;;2.42;;
64885;SDS011;51514;52.206;5.114;2023-08-07T14:15:36;5.90;;;1.88;;
64885;SDS011;51514;52.206;5.114;2023-08-07T14:18:02;3.10;;;1.98;;
64885;SDS011;51514;52.206;5.114;2023-08-07T14:20:27;2.70;;;1.80;;
64885;SDS011;51514;52.206;5.114;2023-08-07T14:22:53;7.13;;;2.60;;
64885;SDS011;51514;52.206;5.114;2023-08-07T14:25:18;3.58;;;1.77;;
64885;SDS011;51514;52.206;5.114;2023-08-07T14:27:46;5.47;;;2.00;;
64885;SDS011;51514;52.206;5.114;2023-08-07T14:30:12;3.78;;;2.30;;
64885;SDS011;51514;52.206;5.114;2023-08-07T14:32:37;2.80;;;1.75;;
64885;SDS011;51514;52.206;5.114;2023-08-07T14:35:03;6.85;;;1.95;;
64885;SDS011;51514;52.206;5.114;2023-08-07T14:37:29;3.50;;;1.77;;
64885;SDS011;51514;52.206;5.114;2023-08-07T14:39:54;4.05;;;2.20;;
64885;SDS011;51514;52.206;5.114;2023-08-07T14:42:19;5.88;;;2.25;;
64885;SDS011;51514;52.206;5.114;2023-08-07T14:44:45;2.92;;;1.63;;
64885;SDS011;51514;52.206;5.114;2023-08-07T14:47:10;2.90;;;1.75;;
64885;SDS011;51514;52.206;5.114;2023-08-07T14:49:36;4.30;;;1.75;;